createdAt,value
2019-01-20T00:02:20.682Z,77.04
2019-01-20T00:04:49.048Z,77.28
2019-01-20T00:07:17.455Z,76.84
2019-01-20T00:09:45.830Z,77.51
2019-01-20T00:12:14.206Z,78.61
2019-01-20T00:14:43.322Z,77.75
2019-01-20T00:17:11.695Z,77.68
2019-01-20T00:19:40.073Z,78.60
2019-01-20T00:22:08.446Z,79.46
2019-01-20T00:24:36.830Z,80.08
2019-01-20T00:27:05.635Z,80.86
2019-01-20T00:29:34.013Z,78.72
2019-01-20T00:32:02.392Z,78.33
2019-01-20T00:34:30.778Z,79.52
2019-01-20T00:36:59.242Z,79.21
2019-01-20T00:39:27.622Z,80.43
2019-01-20T00:41:55.993Z,80.03
2019-01-20T00:44:24.620Z,79.75
2019-01-20T00:46:52.993Z,79.63
2019-01-20T00:49:21.371Z,78.16
2019-01-20T00:51:49.756Z,78.96
2019-01-20T00:54:18.194Z,77.94
2019-01-20T00:56:46.573Z,80.03
2019-01-20T00:59:14.948Z,79.72
2019-01-20T01:01:43.329Z,80.31
2019-01-20T01:04:11.703Z,81.95
2019-01-20T01:06:40.094Z,80.18
2019-01-20T01:09:08.907Z,81.50
2019-01-20T01:11:37.354Z,80.58
2019-01-20T01:14:06.102Z,79.90
2019-01-20T01:16:34.563Z,79.13
2019-01-20T01:19:03.009Z,80.18
2019-01-20T01:21:31.713Z,80.24
2019-01-20T01:24:00.089Z,80.42
2019-01-20T01:26:28.468Z,81.69
2019-01-20T01:28:56.844Z,80.83
2019-01-20T01:31:25.227Z,80.86
2019-01-20T01:33:53.619Z,81.91
2019-01-20T01:36:21.983Z,81.18
2019-01-20T01:38:50.375Z,81.75
2019-01-20T01:41:18.741Z,80.40
2019-01-20T01:43:47.135Z,80.53
2019-01-20T01:46:15.512Z,80.89
2019-01-20T01:48:43.909Z,80.52
2019-01-20T01:51:12.287Z,80.90
2019-01-20T01:53:40.669Z,81.07
2019-01-20T01:56:09.047Z,81.24
2019-01-20T01:58:37.432Z,79.95
2019-01-20T02:01:06.037Z,79.74
2019-01-20T02:03:34.410Z,81.19
2019-01-20T02:06:02.795Z,80.76
2019-01-20T02:08:31.166Z,80.68
2019-01-20T02:10:59.571Z,81.40
2019-01-20T02:13:27.944Z,81.40
2019-01-20T02:15:56.316Z,80.65
2019-01-20T02:18:24.702Z,81.23
2019-01-20T02:20:53.077Z,81.66
2019-01-20T02:23:21.519Z,82.28
2019-01-20T02:25:49.907Z,81.69
2019-01-20T02:28:18.281Z,82.21
2019-01-20T02:30:46.666Z,81.80
2019-01-20T02:33:15.045Z,81.76
2019-01-20T02:35:43.432Z,80.53
2019-01-20T02:38:11.803Z,80.96
2019-01-20T02:40:40.195Z,80.78
2019-01-20T02:43:08.570Z,81.29
2019-01-20T02:45:36.952Z,82.21
2019-01-20T02:48:05.323Z,82.17
2019-01-20T02:50:33.697Z,82.76
2019-01-20T02:53:02.076Z,82.71
2019-01-20T02:55:30.455Z,82.78
2019-01-20T02:57:58.847Z,83.05
2019-01-20T03:00:27.221Z,82.63
2019-01-20T03:02:55.689Z,82.86
2019-01-20T03:05:24.587Z,81.01
2019-01-20T03:07:53.050Z,81.49
2019-01-20T03:10:21.567Z,82.28
2019-01-20T03:12:49.942Z,81.89
2019-01-20T03:15:18.311Z,81.43
2019-01-20T03:17:46.769Z,81.28
2019-01-20T03:20:20.307Z,79.90
2019-01-20T03:22:48.942Z,81.94
2019-01-20T03:25:17.968Z,82.21
2019-01-20T03:27:46.357Z,82.21
2019-01-20T03:30:17.466Z,83.79
2019-01-20T03:32:45.840Z,84.71
2019-01-20T03:35:15.339Z,84.71
2019-01-20T03:37:43.983Z,85.51
2019-01-20T03:40:15.298Z,85.84
2019-01-20T03:42:43.745Z,84.97
2019-01-20T03:45:14.655Z,84.80
2019-01-20T03:47:43.341Z,84.45
2019-01-20T03:50:13.671Z,83.08
2019-01-20T03:52:42.038Z,82.65
2019-01-20T03:55:12.663Z,83.37
2019-01-20T03:57:41.042Z,83.78
2019-01-20T04:00:17.390Z,84.46
2019-01-20T04:02:47.586Z,84.46
2019-01-20T04:05:16.042Z,84.54
2019-01-20T04:07:44.410Z,81.99
2019-01-20T04:10:16.879Z,83.30
2019-01-20T04:12:45.338Z,82.75
2019-01-20T04:15:15.256Z,82.75
2019-01-20T04:17:44.174Z,83.35
2019-01-20T04:20:16.179Z,84.07
2019-01-20T04:22:44.560Z,83.86
2019-01-20T04:25:17.738Z,84.86
2019-01-20T04:27:46.196Z,82.35
2019-01-20T04:30:17.112Z,82.86
2019-01-20T04:32:45.485Z,82.86
2019-01-20T04:35:13.945Z,83.33
2019-01-20T04:37:42.315Z,83.08
2019-01-20T04:40:16.277Z,81.98
2019-01-20T04:42:44.657Z,82.80
2019-01-20T04:45:14.627Z,82.44
2019-01-20T04:47:43.073Z,83.59
2019-01-20T04:50:14.273Z,83.63
2019-01-20T04:52:42.743Z,83.27
2019-01-20T04:55:13.098Z,81.91
2019-01-20T04:57:42.547Z,81.51
2019-01-20T05:00:16.574Z,83.03
2019-01-20T05:02:44.961Z,82.26
2019-01-20T05:05:13.407Z,82.15
2019-01-20T05:07:41.795Z,81.48
2019-01-20T05:10:12.717Z,82.93
2019-01-20T05:12:41.093Z,82.65
2019-01-20T05:15:15.079Z,81.17
2019-01-20T05:17:43.465Z,81.10
2019-01-20T05:20:12.867Z,81.10
2019-01-20T05:22:41.322Z,80.89
2019-01-20T05:25:10.939Z,81.40
2019-01-20T05:27:39.307Z,81.22
2019-01-20T05:30:11.016Z,82.06
2019-01-20T05:32:39.384Z,81.10
2019-01-20T05:35:09.312Z,82.16
2019-01-20T05:37:37.725Z,81.03
2019-01-20T05:40:08.949Z,81.03
2019-01-20T05:42:37.326Z,81.95
2019-01-20T05:45:08.759Z,82.35
2019-01-20T05:47:37.131Z,81.72
2019-01-20T05:50:09.162Z,82.86
2019-01-20T05:52:37.766Z,82.83
2019-01-20T05:55:11.663Z,83.54
2019-01-20T05:57:40.105Z,83.54
2019-01-20T06:00:11.538Z,82.63
2019-01-20T06:02:39.988Z,82.25
2019-01-20T06:05:08.372Z,81.09
2019-01-20T06:07:36.755Z,82.27
2019-01-20T06:10:08.353Z,82.27
2019-01-20T06:12:36.994Z,82.60
2019-01-20T06:15:08.476Z,81.05
2019-01-20T06:17:37.762Z,80.55
2019-01-20T06:20:08.493Z,81.84
2019-01-20T06:22:36.863Z,80.85
2019-01-20T06:25:07.377Z,80.51
2019-01-20T06:27:35.817Z,80.97
2019-01-20T06:30:16.041Z,80.40
2019-01-20T06:32:44.421Z,82.03
2019-01-20T06:35:12.876Z,82.21
2019-01-20T06:37:41.259Z,83.17
2019-01-20T06:40:09.873Z,83.17
2019-01-20T06:42:38.256Z,82.92
2019-01-20T06:45:12.062Z,83.18
2019-01-20T06:47:40.445Z,83.29
2019-01-20T06:50:11.800Z,82.98
2019-01-20T06:52:40.215Z,82.67
2019-01-20T06:55:10.114Z,82.67
2019-01-20T06:57:38.573Z,81.83
2019-01-20T07:00:18.894Z,80.87
2019-01-20T07:02:47.279Z,80.87
2019-01-20T07:05:15.668Z,81.98
2019-01-20T07:07:44.512Z,80.47
2019-01-20T07:10:17.442Z,81.63
2019-01-20T07:12:45.842Z,81.29
2019-01-20T07:15:16.460Z,81.64
2019-01-20T07:17:44.905Z,81.64
2019-01-20T07:20:14.340Z,81.08
2019-01-20T07:22:42.789Z,80.67
2019-01-20T07:25:11.411Z,80.67
2019-01-20T07:27:39.776Z,81.52
2019-01-20T07:30:16.807Z,81.26
2019-01-20T07:32:45.249Z,82.01
2019-01-20T07:35:13.983Z,82.71
2019-01-20T07:37:42.422Z,81.07
2019-01-20T07:40:16.229Z,80.87
2019-01-20T07:42:44.607Z,80.46
2019-01-20T07:45:14.537Z,80.81
2019-01-20T07:47:42.911Z,80.97
2019-01-20T07:50:14.222Z,82.21
2019-01-20T07:52:42.595Z,80.62
2019-01-20T07:55:11.050Z,81.85
2019-01-20T07:57:39.435Z,79.99
2019-01-20T08:00:14.103Z,79.97
2019-01-20T08:02:42.524Z,79.97
2019-01-20T08:05:11.238Z,81.38
2019-01-20T08:07:39.634Z,82.03
2019-01-20T08:10:16.951Z,82.03
2019-01-20T08:12:46.244Z,82.28
2019-01-20T08:15:16.168Z,81.35
2019-01-20T08:17:44.616Z,82.40
2019-01-20T08:20:18.496Z,82.40
2019-01-20T08:22:46.927Z,81.49
2019-01-20T08:25:16.928Z,81.05
2019-01-20T08:27:45.376Z,81.92
2019-01-20T08:30:16.536Z,80.79
2019-01-20T08:32:44.923Z,81.39
2019-01-20T08:35:14.235Z,81.39
2019-01-20T08:37:42.695Z,83.03
2019-01-20T08:40:19.021Z,82.55
2019-01-20T08:42:47.399Z,82.83
2019-01-20T08:45:18.839Z,83.97
2019-01-20T08:47:49.163Z,83.80
2019-01-20T08:50:17.587Z,82.60
2019-01-20T08:52:46.030Z,82.60
2019-01-20T08:55:14.419Z,83.07
2019-01-20T08:57:42.831Z,81.53
2019-01-20T09:00:14.441Z,81.53
2019-01-20T09:02:42.829Z,80.85
2019-01-20T09:05:11.556Z,81.82
2019-01-20T09:07:39.928Z,81.82
2019-01-20T09:10:14.393Z,81.79
2019-01-20T09:12:42.937Z,81.79
2019-01-20T09:15:11.315Z,80.59
2019-01-20T09:17:39.690Z,78.37
2019-01-20T09:20:11.115Z,79.80
2019-01-20T09:22:39.491Z,80.18
2019-01-20T09:25:10.306Z,79.93
2019-01-20T09:27:38.767Z,78.18
2019-01-20T09:30:19.213Z,78.18
2019-01-20T09:32:47.611Z,78.33
2019-01-20T09:35:16.149Z,79.08
2019-01-20T09:37:44.545Z,78.78
2019-01-20T09:40:15.260Z,78.89
2019-01-20T09:42:43.727Z,77.71
2019-01-20T09:45:17.178Z,77.56
2019-01-20T09:47:45.560Z,77.51
2019-01-20T09:50:13.998Z,76.65
2019-01-20T09:52:42.379Z,75.33
2019-01-20T09:55:12.085Z,75.57
2019-01-20T09:57:40.465Z,74.64
2019-01-20T10:00:15.075Z,74.53
2019-01-20T10:02:43.450Z,73.92
2019-01-20T10:05:11.887Z,73.99
2019-01-20T10:07:40.259Z,71.83
2019-01-20T10:10:11.778Z,72.15
2019-01-20T10:12:40.156Z,71.27
2019-01-20T10:15:13.162Z,70.67
2019-01-20T10:17:41.538Z,68.86
2019-01-20T10:20:27.144Z,68.40
2019-01-20T10:22:56.081Z,68.10
2019-01-20T10:25:24.518Z,66.46
2019-01-20T10:27:52.896Z,66.81
2019-01-20T10:30:24.496Z,65.40
2019-01-20T10:32:52.942Z,64.69
2019-01-20T10:35:23.021Z,66.00
2019-01-20T10:38:01.745Z,63.68
2019-01-20T10:40:30.185Z,64.47
2019-01-20T10:42:58.554Z,65.42
2019-01-20T10:45:26.949Z,64.57
2019-01-20T10:47:55.337Z,63.95
2019-01-20T10:50:23.699Z,63.71
2019-01-20T10:52:52.074Z,62.60
2019-01-20T10:55:20.447Z,64.11
2019-01-20T10:57:48.898Z,62.80
2019-01-20T11:00:28.905Z,64.17
2019-01-20T11:02:57.392Z,62.63
2019-01-20T11:05:30.800Z,63.79
2019-01-20T11:07:56.273Z,63.85
2019-01-20T11:10:24.645Z,63.07
2019-01-20T11:12:53.032Z,62.55
2019-01-20T11:15:21.465Z,62.89
2019-01-20T11:17:49.846Z,64.05
2019-01-20T11:20:20.052Z,63.73
2019-01-20T11:22:48.443Z,62.77
2019-01-20T11:25:19.861Z,63.30
2019-01-20T11:27:48.407Z,62.55
2019-01-20T11:30:16.916Z,63.14
2019-01-20T11:32:45.300Z,60.84
2019-01-20T11:35:16.670Z,60.99
2019-01-20T11:37:45.125Z,61.94
2019-01-20T11:40:14.742Z,60.87
2019-01-20T11:42:43.257Z,60.85
2019-01-20T11:45:17.966Z,60.62
2019-01-20T11:47:46.409Z,61.58
2019-01-20T11:50:15.617Z,59.83
2019-01-20T11:52:44.163Z,61.50
2019-01-20T11:55:18.320Z,59.92
2019-01-20T11:57:46.708Z,60.36
2019-01-20T12:00:20.762Z,60.44
2019-01-20T12:02:49.123Z,61.82
2019-01-20T12:05:18.427Z,60.23
2019-01-20T12:07:46.799Z,60.95
2019-01-20T12:10:15.354Z,60.93
2019-01-20T12:12:45.365Z,61.21
2019-01-20T12:15:15.698Z,61.18
2019-01-20T12:17:44.146Z,60.99
2019-01-20T12:20:14.464Z,61.10
2019-01-20T12:22:43.812Z,58.99
2019-01-20T12:25:19.671Z,58.75
2019-01-20T12:27:48.043Z,59.45
2019-01-20T12:30:21.679Z,58.99
2019-01-20T12:32:50.358Z,60.18
2019-01-20T12:35:18.739Z,60.08
2019-01-20T12:37:47.111Z,61.12
2019-01-20T12:40:26.516Z,62.21
2019-01-20T12:42:54.963Z,61.59
2019-01-20T12:45:23.425Z,61.07
2019-01-20T12:47:51.801Z,62.13
2019-01-20T12:50:20.254Z,61.60
2019-01-20T12:52:48.624Z,60.90
2019-01-20T12:55:17.487Z,61.50
2019-01-20T12:57:45.940Z,60.97
2019-01-20T13:00:19.145Z,60.58
2019-01-20T13:02:47.695Z,60.32
2019-01-20T13:05:16.147Z,60.94
2019-01-20T13:07:44.585Z,59.51
2019-01-20T13:10:18.283Z,60.43
2019-01-20T13:12:46.793Z,60.38
2019-01-20T13:15:20.348Z,61.47
2019-01-20T13:17:48.800Z,62.38
2019-01-20T13:20:19.756Z,61.16
2019-01-20T13:22:48.364Z,61.59
2019-01-20T13:25:22.237Z,61.65
2019-01-20T13:27:50.615Z,60.53
2019-01-20T13:30:24.223Z,60.25
2019-01-20T13:32:52.770Z,60.10
2019-01-20T13:35:22.002Z,60.75
2019-01-20T13:37:53.121Z,61.68
2019-01-20T13:40:24.568Z,60.63
2019-01-20T13:42:53.194Z,61.33
2019-01-20T13:45:21.569Z,60.22
2019-01-20T13:47:49.948Z,61.20
2019-01-20T13:50:19.874Z,61.56
2019-01-20T13:52:48.252Z,60.89
2019-01-20T13:55:18.018Z,60.96
2019-01-20T13:57:46.407Z,61.67
2019-01-20T14:00:25.069Z,61.64
2019-01-20T14:02:53.591Z,62.41
2019-01-20T14:05:22.098Z,61.73
2019-01-20T14:07:50.545Z,61.93
2019-01-20T14:10:24.395Z,61.82
2019-01-20T14:12:52.916Z,62.29
2019-01-20T14:15:21.368Z,62.73
2019-01-20T14:17:49.762Z,62.38
2019-01-20T14:20:25.465Z,62.94
2019-01-20T14:22:53.848Z,62.97
2019-01-20T14:25:29.591Z,62.95
2019-01-20T14:27:57.967Z,62.56
2019-01-20T14:30:34.167Z,62.76
2019-01-20T14:33:02.546Z,62.30
2019-01-20T14:35:30.921Z,62.67
2019-01-20T14:37:59.307Z,63.73
2019-01-20T14:40:27.685Z,62.80
2019-01-20T14:42:56.065Z,62.89
2019-01-20T14:45:24.512Z,63.33
2019-01-20T14:47:52.959Z,62.89
2019-01-20T14:50:23.952Z,63.29
2019-01-20T14:52:52.404Z,62.24
2019-01-20T14:55:21.140Z,61.78
2019-01-20T14:57:49.483Z,61.31
2019-01-20T15:00:26.307Z,61.67
2019-01-20T15:02:54.752Z,62.14
2019-01-20T15:05:23.149Z,61.43
2019-01-20T15:07:51.525Z,62.71
2019-01-20T15:10:19.909Z,61.22
2019-01-20T15:12:48.281Z,60.71
2019-01-20T15:15:21.017Z,62.00
2019-01-20T15:17:49.382Z,61.07
2019-01-20T15:20:17.765Z,61.25
2019-01-20T15:22:46.145Z,61.65
2019-01-20T15:25:16.575Z,61.79
2019-01-20T15:27:44.951Z,62.10
2019-01-20T15:30:19.320Z,62.94
2019-01-20T15:32:47.931Z,62.49
2019-01-20T15:35:16.375Z,62.99
2019-01-20T15:37:44.757Z,63.08
2019-01-20T15:40:16.235Z,63.54
2019-01-20T15:42:44.616Z,63.22
2019-01-20T15:45:16.462Z,63.77
2019-01-20T15:47:45.084Z,63.43
2019-01-20T15:50:18.794Z,64.36
2019-01-20T15:52:47.175Z,64.47
2019-01-20T15:55:15.793Z,64.65
2019-01-20T15:57:44.172Z,64.30
2019-01-20T16:00:17.849Z,64.79
2019-01-20T16:02:46.290Z,66.65
2019-01-20T16:05:14.911Z,67.19
2019-01-20T16:07:43.295Z,65.58
2019-01-20T16:10:14.278Z,66.91
2019-01-20T16:12:42.662Z,69.19
2019-01-20T16:15:23.989Z,67.80
2019-01-20T16:17:47.578Z,68.20
2019-01-20T16:20:17.885Z,69.46
2019-01-20T16:22:46.414Z,69.75
2019-01-20T16:25:20.276Z,69.97
2019-01-20T16:27:48.734Z,72.25
2019-01-20T16:30:25.991Z,68.78
2019-01-20T16:32:54.450Z,69.50
2019-01-20T16:35:23.670Z,69.80
2019-01-20T16:37:52.037Z,69.47
2019-01-20T16:40:22.652Z,70.00
2019-01-20T16:42:51.099Z,69.23
2019-01-20T16:45:22.358Z,68.80
2019-01-20T16:47:50.755Z,68.40
2019-01-20T16:50:24.655Z,69.28
2019-01-20T16:52:54.698Z,69.56
2019-01-20T16:55:23.515Z,69.20
2019-01-20T16:57:51.968Z,71.71
2019-01-20T17:00:28.703Z,71.16
2019-01-20T17:02:57.215Z,71.10
2019-01-20T17:05:27.057Z,70.81
2019-01-20T17:07:55.560Z,71.64
2019-01-20T17:10:26.774Z,70.60
2019-01-20T17:12:55.228Z,70.34
2019-01-20T17:15:26.329Z,70.80
2019-01-20T17:17:54.698Z,70.71
2019-01-20T17:20:23.226Z,71.74
2019-01-20T17:22:51.595Z,71.38
2019-01-20T17:25:19.989Z,73.29
2019-01-20T17:27:48.439Z,72.72
2019-01-20T17:30:22.262Z,71.69
2019-01-20T17:32:50.642Z,73.13
2019-01-20T17:35:19.120Z,72.89
2019-01-20T17:37:47.488Z,72.07
2019-01-20T17:40:18.590Z,72.70
2019-01-20T17:42:47.044Z,73.17
2019-01-20T17:45:24.726Z,74.97
2019-01-20T17:47:53.082Z,74.42
2019-01-20T17:50:23.913Z,72.81
2019-01-20T17:52:52.952Z,73.25
2019-01-20T17:55:21.406Z,73.24
2019-01-20T17:57:49.853Z,73.36
2019-01-20T18:00:20.920Z,73.29
2019-01-20T18:02:49.463Z,74.49
2019-01-20T18:05:20.798Z,74.27
2019-01-20T18:07:49.174Z,74.55
2019-01-20T18:10:17.627Z,73.88
2019-01-20T18:12:46.072Z,75.03
2019-01-20T18:15:17.584Z,74.57
2019-01-20T18:17:46.022Z,73.72
2019-01-20T18:20:19.395Z,73.81
2019-01-20T18:22:47.914Z,75.35
2019-01-20T18:25:18.174Z,75.96
2019-01-20T18:27:46.619Z,76.04
2019-01-20T18:30:18.663Z,74.69
2019-01-20T18:32:47.042Z,74.81
2019-01-20T18:35:15.483Z,76.78
2019-01-20T18:37:43.864Z,77.04
2019-01-20T18:40:17.472Z,76.07
2019-01-20T18:42:45.920Z,75.51
2019-01-20T18:45:16.437Z,75.75
2019-01-20T18:47:45.002Z,77.18
2019-01-20T18:50:16.458Z,75.69
2019-01-20T18:52:44.830Z,77.50
2019-01-20T18:55:15.577Z,78.02
2019-01-20T18:57:44.395Z,77.82
2019-01-20T19:00:21.571Z,76.87
2019-01-20T19:02:49.961Z,75.40
2019-01-20T19:05:18.775Z,77.82
2019-01-20T19:07:47.457Z,75.98
2019-01-20T19:10:18.881Z,78.60
2019-01-20T19:12:47.336Z,76.36
2019-01-20T19:15:18.510Z,79.08
2019-01-20T19:17:46.812Z,77.05
2019-01-20T19:20:19.608Z,76.61
2019-01-20T19:22:48.938Z,78.75
2019-01-20T19:25:17.576Z,78.34
2019-01-20T19:27:46.129Z,76.78
2019-01-20T19:30:17.483Z,76.91
2019-01-20T19:32:45.864Z,78.14
2019-01-20T19:35:14.382Z,78.16
2019-01-20T19:37:42.830Z,77.83
2019-01-20T19:40:13.345Z,76.94
2019-01-20T19:42:41.752Z,76.88
2019-01-20T19:45:12.868Z,78.83
2019-01-20T19:47:41.239Z,79.20
2019-01-20T19:50:12.025Z,76.61
2019-01-20T19:52:40.442Z,77.87
2019-01-20T19:55:11.861Z,80.31
2019-01-20T19:57:40.230Z,78.54
2019-01-20T20:00:14.787Z,79.13
2019-01-20T20:02:43.164Z,78.67
2019-01-20T20:05:14.103Z,81.00
2019-01-20T20:07:42.484Z,78.82
2019-01-20T20:10:13.703Z,80.67
2019-01-20T20:12:42.073Z,79.63
2019-01-20T20:15:16.401Z,79.23
2019-01-20T20:17:45.024Z,78.55
2019-01-20T20:20:15.904Z,79.91
2019-01-20T20:22:44.282Z,80.11
2019-01-20T20:25:15.003Z,79.10
2019-01-20T20:27:43.382Z,79.79
2019-01-20T20:30:20.654Z,80.14
2019-01-20T20:32:49.018Z,79.40
2019-01-20T20:35:17.404Z,80.08
2019-01-20T20:37:45.784Z,79.32
2019-01-20T20:40:19.265Z,79.95
2019-01-20T20:42:47.644Z,79.29
2019-01-20T20:45:18.714Z,78.74
2019-01-20T20:47:47.241Z,78.71
2019-01-20T20:50:16.966Z,79.07
2019-01-20T20:52:46.254Z,79.34
2019-01-20T20:55:14.872Z,79.17
2019-01-20T20:57:43.496Z,80.11
2019-01-20T21:00:20.566Z,80.27
2019-01-20T21:02:49.011Z,79.01
2019-01-20T21:05:17.403Z,77.93
2019-01-20T21:07:45.924Z,78.23
2019-01-20T21:10:17.608Z,79.33
2019-01-20T21:12:46.073Z,79.41
2019-01-20T21:15:16.207Z,78.10
2019-01-20T21:17:48.455Z,77.82
2019-01-20T21:20:22.611Z,78.06
2019-01-20T21:22:51.067Z,78.38
2019-01-20T21:25:19.638Z,80.92
2019-01-20T21:27:48.025Z,80.39
2019-01-20T21:30:27.455Z,80.73
2019-01-20T21:32:55.842Z,80.73
2019-01-20T21:35:24.293Z,80.45
2019-01-20T21:37:52.681Z,78.96
2019-01-20T21:40:21.125Z,79.06
2019-01-20T21:42:49.589Z,78.32
2019-01-20T21:45:18.911Z,80.19
2019-01-20T21:47:47.439Z,79.68
2019-01-20T21:50:21.462Z,79.11
2019-01-20T21:52:49.850Z,80.18
2019-01-20T21:55:18.302Z,80.86
2019-01-20T21:57:46.684Z,80.76
2019-01-20T22:00:20.254Z,80.29
2019-01-20T22:02:48.645Z,78.90
2019-01-20T22:05:17.031Z,79.56
2019-01-20T22:07:46.060Z,79.89
2019-01-20T22:10:19.307Z,82.31
2019-01-20T22:12:47.770Z,82.31
2019-01-20T22:15:16.389Z,81.59
2019-01-20T22:17:45.613Z,81.94
2019-01-20T22:20:16.336Z,81.62
2019-01-20T22:22:44.864Z,81.95
2019-01-20T22:25:13.787Z,80.32
2019-01-20T22:27:42.433Z,79.98
2019-01-20T22:30:19.188Z,80.42
2019-01-20T22:32:47.584Z,80.21
2019-01-20T22:35:16.199Z,82.07
2019-01-20T22:37:44.588Z,81.24
2019-01-20T22:40:15.210Z,79.21
2019-01-20T22:42:43.579Z,79.21
2019-01-20T22:45:14.647Z,80.00
2019-01-20T22:47:43.025Z,80.83
2019-01-20T22:50:13.163Z,80.10
2019-01-20T22:52:41.796Z,79.65
2019-01-20T22:55:15.613Z,79.79
2019-01-20T22:57:44.325Z,79.72
2019-01-20T23:00:18.434Z,80.61
2019-01-20T23:02:47.083Z,80.76
2019-01-20T23:05:15.633Z,81.15
2019-01-20T23:07:44.008Z,80.16
2019-01-20T23:10:12.397Z,80.37
2019-01-20T23:12:40.782Z,80.91
2019-01-20T23:15:10.201Z,81.05
2019-01-20T23:17:38.580Z,81.05
2019-01-20T23:20:10.020Z,80.83
2019-01-20T23:22:38.393Z,80.02
2019-01-20T23:25:06.944Z,81.71
2019-01-20T23:27:35.346Z,81.71
2019-01-20T23:30:05.329Z,81.86
2019-01-20T23:32:33.704Z,82.44
2019-01-20T23:35:02.087Z,83.07
2019-01-20T23:37:30.503Z,83.63
2019-01-20T23:39:58.884Z,82.97
2019-01-20T23:42:27.266Z,82.97
2019-01-20T23:44:55.641Z,82.82
2019-01-20T23:47:24.032Z,82.40
2019-01-20T23:49:52.410Z,81.89
2019-01-20T23:52:20.795Z,84.18
2019-01-20T23:54:49.176Z,84.11
2019-01-20T23:57:17.795Z,83.31
2019-01-20T23:59:46.180Z,84.07
